sensor_id;sensor_type;location;lat;lon;timestamp;P1;durP1;ratioP1;P2;durP2;ratioP2
291;SDS011;23311;48.776;9.162;2023-06-22T00:01:20;9.27;;;8.77;;
291;SDS011;23311;48.776;9.162;2023-06-22T00:03:49;11.67;;;8.30;;
291;SDS011;23311;48.776;9.162;2023-06-22T00:06:17;8.33;;;7.90;;
291;SDS011;23311;48.776;9.162;2023-06-22T00:08:45;9.00;;;7.80;;
291;SDS011;23311;48.776;9.162;2023-06-22T00:11:15;8.80;;;8.30;;
291;SDS011;23311;48.776;9.162;2023-06-22T00:13:44;8.83;;;8.33;;
291;SDS011;23311;48.776;9.162;2023-06-22T00:16:13;8.87;;;8.37;;
291;SDS011;23311;48.776;9.162;2023-06-22T00:18:41;8.83;;;8.37;;
291;SDS011;23311;48.776;9.162;2023-06-22T00:21:13;8.20;;;7.80;;
291;SDS011;23311;48.776;9.162;2023-06-22T00:23:41;10.53;;;9.30;;
291;SDS011;23311;48.776;9.162;2023-06-22T00:26:10;9.30;;;8.80;;
291;SDS011;23311;48.776;9.162;2023-06-22T00:28:40;9.87;;;9.40;;
291;SDS011;23311;48.776;9.162;2023-06-22T00:31:08;8.73;;;8.23;;
291;SDS011;23311;48.776;9.162;2023-06-22T00:33:36;8.87;;;8.37;;
291;SDS011;23311;48.776;9.162;2023-06-22T00:36:04;9.13;;;8.07;;
291;SDS011;23311;48.776;9.162;2023-06-22T00:38:34;9.70;;;7.90;;
291;SDS011;23311;48.776;9.162;2023-06-22T00:41:06;11.70;;;9.33;;
291;SDS011;23311;48.776;9.162;2023-06-22T00:43:35;9.97;;;9.23;;
291;SDS011;23311;48.776;9.162;2023-06-22T00:46:04;10.13;;;9.63;;
291;SDS011;23311;48.776;9.162;2023-06-22T00:48:33;8.67;;;8.17;;
291;SDS011;23311;48.776;9.162;2023-06-22T00:51:03;11.13;;;9.73;;
291;SDS011;23311;48.776;9.162;2023-06-22T00:53:31;9.53;;;9.03;;
291;SDS011;23311;48.776;9.162;2023-06-22T00:56:01;9.47;;;8.53;;
291;SDS011;23311;48.776;9.162;2023-06-22T00:58:29;11.00;;;9.30;;
291;SDS011;23311;48.776;9.162;2023-06-22T01:00:58;9.13;;;8.63;;
291;SDS011;23311;48.776;9.162;2023-06-22T01:03:28;10.57;;;9.40;;
291;SDS011;23311;48.776;9.162;2023-06-22T01:05:58;10.63;;;9.33;;
291;SDS011;23311;48.776;9.162;2023-06-22T01:08:38;9.93;;;9.23;;
291;SDS011;23311;48.776;9.162;2023-06-22T01:11:13;9.33;;;8.83;;
291;SDS011;23311;48.776;9.162;2023-06-22T01:13:48;9.53;;;9.03;;
291;SDS011;23311;48.776;9.162;2023-06-22T01:16:23;8.00;;;7.60;;
291;SDS011;23311;48.776;9.162;2023-06-22T01:18:55;7.83;;;7.43;;
291;SDS011;23311;48.776;9.162;2023-06-22T01:21:28;9.07;;;8.57;;
291;SDS011;23311;48.776;9.162;2023-06-22T01:24:01;9.10;;;8.60;;
291;SDS011;23311;48.776;9.162;2023-06-22T01:26:38;9.50;;;9.00;;
291;SDS011;23311;48.776;9.162;2023-06-22T01:29:12;9.53;;;8.03;;
291;SDS011;23311;48.776;9.162;2023-06-22T01:31:41;10.27;;;9.37;;
291;SDS011;23311;48.776;9.162;2023-06-22T01:34:12;8.87;;;8.37;;
291;SDS011;23311;48.776;9.162;2023-06-22T01:36:41;9.80;;;7.83;;
291;SDS011;23311;48.776;9.162;2023-06-22T01:39:10;9.27;;;8.80;;
291;SDS011;23311;48.776;9.162;2023-06-22T01:41:40;8.67;;;8.17;;
291;SDS011;23311;48.776;9.162;2023-06-22T01:44:09;8.30;;;7.83;;
291;SDS011;23311;48.776;9.162;2023-06-22T01:46:39;10.20;;;8.10;;
291;SDS011;23311;48.776;9.162;2023-06-22T01:49:08;8.90;;;8.40;;
291;SDS011;23311;48.776;9.162;2023-06-22T01:51:37;11.63;;;9.20;;
291;SDS011;23311;48.776;9.162;2023-06-22T01:54:05;10.50;;;9.40;;
291;SDS011;23311;48.776;9.162;2023-06-22T01:56:35;10.50;;;9.53;;
291;SDS011;23311;48.776;9.162;2023-06-22T01:59:05;11.37;;;9.60;;
291;SDS011;23311;48.776;9.162;2023-06-22T02:01:41;12.70;;;10.70;;
291;SDS011;23311;48.776;9.162;2023-06-22T02:04:12;12.47;;;9.57;;
291;SDS011;23311;48.776;9.162;2023-06-22T02:06:46;10.40;;;9.87;;
291;SDS011;23311;48.776;9.162;2023-06-22T02:09:17;9.97;;;9.40;;
291;SDS011;23311;48.776;9.162;2023-06-22T02:11:48;10.53;;;9.50;;
291;SDS011;23311;48.776;9.162;2023-06-22T02:14:21;11.70;;;9.50;;
291;SDS011;23311;48.776;9.162;2023-06-22T02:16:51;10.80;;;10.20;;
291;SDS011;23311;48.776;9.162;2023-06-22T02:19:22;9.90;;;9.40;;
291;SDS011;23311;48.776;9.162;2023-06-22T02:21:51;11.00;;;10.40;;
291;SDS011;23311;48.776;9.162;2023-06-22T02:24:19;11.90;;;9.90;;
291;SDS011;23311;48.776;9.162;2023-06-22T02:26:49;10.57;;;10.00;;
291;SDS011;23311;48.776;9.162;2023-06-22T02:29:17;11.17;;;9.50;;
291;SDS011;23311;48.776;9.162;2023-06-22T02:31:45;10.10;;;9.60;;
291;SDS011;23311;48.776;9.162;2023-06-22T02:34:15;9.30;;;8.80;;
291;SDS011;23311;48.776;9.162;2023-06-22T02:36:45;10.70;;;10.10;;
291;SDS011;23311;48.776;9.162;2023-06-22T02:39:18;10.73;;;10.13;;
291;SDS011;23311;48.776;9.162;2023-06-22T02:41:48;11.80;;;10.13;;
291;SDS011;23311;48.776;9.162;2023-06-22T02:44:17;10.77;;;10.17;;
291;SDS011;23311;48.776;9.162;2023-06-22T02:46:45;11.27;;;10.67;;
291;SDS011;23311;48.776;9.162;2023-06-22T02:49:15;11.03;;;10.43;;
291;SDS011;23311;48.776;9.162;2023-06-22T02:51:45;12.83;;;11.07;;
291;SDS011;23311;48.776;9.162;2023-06-22T02:54:14;12.20;;;10.97;;
291;SDS011;23311;48.776;9.162;2023-06-22T02:56:42;16.43;;;11.97;;
291;SDS011;23311;48.776;9.162;2023-06-22T02:59:11;11.77;;;11.17;;
291;SDS011;23311;48.776;9.162;2023-06-22T03:01:39;13.47;;;11.93;;
291;SDS011;23311;48.776;9.162;2023-06-22T03:04:07;11.30;;;10.67;;
291;SDS011;23311;48.776;9.162;2023-06-22T03:06:38;11.37;;;10.77;;
291;SDS011;23311;48.776;9.162;2023-06-22T03:09:07;11.17;;;10.57;;
291;SDS011;23311;48.776;9.162;2023-06-22T03:11:35;11.33;;;9.97;;
291;SDS011;23311;48.776;9.162;2023-06-22T03:14:03;11.30;;;9.40;;
291;SDS011;23311;48.776;9.162;2023-06-22T03:16:31;12.17;;;10.00;;
291;SDS011;23311;48.776;9.162;2023-06-22T03:19:00;14.40;;;10.17;;
291;SDS011;23311;48.776;9.162;2023-06-22T03:21:28;10.60;;;10.03;;
291;SDS011;23311;48.776;9.162;2023-06-22T03:23:58;11.03;;;10.00;;
291;SDS011;23311;48.776;9.162;2023-06-22T03:26:26;12.30;;;10.47;;
291;SDS011;23311;48.776;9.162;2023-06-22T03:28:54;10.83;;;10.27;;
291;SDS011;23311;48.776;9.162;2023-06-22T03:31:22;12.10;;;11.50;;
291;SDS011;23311;48.776;9.162;2023-06-22T03:33:51;11.13;;;10.53;;
291;SDS011;23311;48.776;9.162;2023-06-22T03:36:19;10.97;;;10.37;;
291;SDS011;23311;48.776;9.162;2023-06-22T03:38:47;10.60;;;9.73;;
291;SDS011;23311;48.776;9.162;2023-06-22T03:41:18;10.97;;;9.57;;
291;SDS011;23311;48.776;9.162;2023-06-22T03:43:46;12.23;;;9.50;;
291;SDS011;23311;48.776;9.162;2023-06-22T03:46:15;10.80;;;9.37;;
291;SDS011;23311;48.776;9.162;2023-06-22T03:48:43;10.87;;;10.13;;
291;SDS011;23311;48.776;9.162;2023-06-22T03:51:11;12.60;;;9.60;;
291;SDS011;23311;48.776;9.162;2023-06-22T03:53:39;10.70;;;9.93;;
291;SDS011;23311;48.776;9.162;2023-06-22T03:56:07;9.93;;;8.87;;
291;SDS011;23311;48.776;9.162;2023-06-22T03:58:36;9.67;;;9.17;;
291;SDS011;23311;48.776;9.162;2023-06-22T04:01:09;10.73;;;10.10;;
291;SDS011;23311;48.776;9.162;2023-06-22T04:03:38;9.77;;;8.90;;
291;SDS011;23311;48.776;9.162;2023-06-22T04:06:06;9.53;;;9.03;;
291;SDS011;23311;48.776;9.162;2023-06-22T04:08:35;9.13;;;8.63;;
291;SDS011;23311;48.776;9.162;2023-06-22T04:11:03;13.03;;;9.00;;
291;SDS011;23311;48.776;9.162;2023-06-22T04:13:31;10.43;;;9.30;;
291;SDS011;23311;48.776;9.162;2023-06-22T04:16:00;9.60;;;8.67;;
291;SDS011;23311;48.776;9.162;2023-06-22T04:18:29;13.80;;;8.40;;
291;SDS011;23311;48.776;9.162;2023-06-22T04:20:57;8.67;;;8.17;;
291;SDS011;23311;48.776;9.162;2023-06-22T04:23:25;10.33;;;9.83;;
291;SDS011;23311;48.776;9.162;2023-06-22T04:25:53;11.37;;;9.20;;
291;SDS011;23311;48.776;9.162;2023-06-22T04:28:22;9.50;;;8.43;;
291;SDS011;23311;48.776;9.162;2023-06-22T04:30:53;9.20;;;8.17;;
291;SDS011;23311;48.776;9.162;2023-06-22T04:33:25;11.07;;;9.30;;
291;SDS011;23311;48.776;9.162;2023-06-22T04:35:53;9.27;;;8.60;;
291;SDS011;23311;48.776;9.162;2023-06-22T04:38:23;13.00;;;8.57;;
291;SDS011;23311;48.776;9.162;2023-06-22T04:40:52;9.47;;;8.40;;
291;SDS011;23311;48.776;9.162;2023-06-22T04:43:21;11.33;;;9.03;;
291;SDS011;23311;48.776;9.162;2023-06-22T04:45:49;9.27;;;8.77;;
291;SDS011;23311;48.776;9.162;2023-06-22T04:48:19;9.20;;;8.30;;
291;SDS011;23311;48.776;9.162;2023-06-22T04:50:48;8.60;;;8.00;;
291;SDS011;23311;48.776;9.162;2023-06-22T04:53:16;12.13;;;7.83;;
291;SDS011;23311;48.776;9.162;2023-06-22T04:55:44;9.87;;;9.07;;
291;SDS011;23311;48.776;9.162;2023-06-22T04:58:15;9.70;;;9.20;;
291;SDS011;23311;48.776;9.162;2023-06-22T05:00:46;9.17;;;8.67;;
291;SDS011;23311;48.776;9.162;2023-06-22T05:03:17;8.50;;;8.00;;
291;SDS011;23311;48.776;9.162;2023-06-22T05:05:46;9.93;;;8.57;;
291;SDS011;23311;48.776;9.162;2023-06-22T05:08:15;8.70;;;8.10;;
291;SDS011;23311;48.776;9.162;2023-06-22T05:10:44;10.43;;;8.60;;
291;SDS011;23311;48.776;9.162;2023-06-22T05:13:30;9.77;;;9.27;;
291;SDS011;23311;48.776;9.162;2023-06-22T05:15:58;10.87;;;9.60;;
291;SDS011;23311;48.776;9.162;2023-06-22T05:18:29;10.40;;;8.80;;
291;SDS011;23311;48.776;9.162;2023-06-22T05:20:58;9.43;;;8.13;;
291;SDS011;23311;48.776;9.162;2023-06-22T05:23:29;9.47;;;8.97;;
291;SDS011;23311;48.776;9.162;2023-06-22T05:25:57;10.27;;;8.27;;
291;SDS011;23311;48.776;9.162;2023-06-22T05:28:25;8.33;;;7.90;;
291;SDS011;23311;48.776;9.162;2023-06-22T05:30:53;8.47;;;8.00;;
291;SDS011;23311;48.776;9.162;2023-06-22T05:33:22;8.50;;;7.53;;
291;SDS011;23311;48.776;9.162;2023-06-22T05:35:50;8.20;;;6.87;;
291;SDS011;23311;48.776;9.162;2023-06-22T05:38:18;10.10;;;8.50;;
291;SDS011;23311;48.776;9.162;2023-06-22T05:40:47;9.27;;;8.20;;
291;SDS011;23311;48.776;9.162;2023-06-22T05:43:15;7.33;;;6.97;;
291;SDS011;23311;48.776;9.162;2023-06-22T05:45:43;8.33;;;7.10;;
291;SDS011;23311;48.776;9.162;2023-06-22T05:48:11;8.60;;;6.70;;
291;SDS011;23311;48.776;9.162;2023-06-22T05:50:40;8.60;;;8.03;;
291;SDS011;23311;48.776;9.162;2023-06-22T05:53:09;8.17;;;7.67;;
291;SDS011;23311;48.776;9.162;2023-06-22T05:55:37;8.73;;;7.87;;
291;SDS011;23311;48.776;9.162;2023-06-22T05:58:07;10.60;;;7.70;;
291;SDS011;23311;48.776;9.162;2023-06-22T06:00:35;8.93;;;7.10;;
291;SDS011;23311;48.776;9.162;2023-06-22T06:03:03;7.27;;;6.87;;
291;SDS011;23311;48.776;9.162;2023-06-22T06:05:32;7.70;;;6.97;;
291;SDS011;23311;48.776;9.162;2023-06-22T06:08:02;10.10;;;8.43;;
291;SDS011;23311;48.776;9.162;2023-06-22T06:10:32;8.87;;;7.00;;
291;SDS011;23311;48.776;9.162;2023-06-22T06:13:00;7.83;;;6.77;;
291;SDS011;23311;48.776;9.162;2023-06-22T06:15:32;8.13;;;7.70;;
291;SDS011;23311;48.776;9.162;2023-06-22T06:18:02;7.67;;;7.27;;
291;SDS011;23311;48.776;9.162;2023-06-22T06:20:32;7.60;;;6.67;;
291;SDS011;23311;48.776;9.162;2023-06-22T06:23:00;9.60;;;7.70;;
291;SDS011;23311;48.776;9.162;2023-06-22T06:25:29;6.83;;;6.43;;
291;SDS011;23311;48.776;9.162;2023-06-22T06:27:57;9.93;;;7.67;;
291;SDS011;23311;48.776;9.162;2023-06-22T06:30:25;8.00;;;6.63;;
291;SDS011;23311;48.776;9.162;2023-06-22T06:32:55;8.37;;;7.80;;
291;SDS011;23311;48.776;9.162;2023-06-22T06:35:23;7.17;;;6.07;;
291;SDS011;23311;48.776;9.162;2023-06-22T06:37:51;9.00;;;5.93;;
291;SDS011;23311;48.776;9.162;2023-06-22T06:40:19;8.90;;;7.97;;
291;SDS011;23311;48.776;9.162;2023-06-22T06:42:48;7.70;;;6.83;;
291;SDS011;23311;48.776;9.162;2023-06-22T06:45:17;7.80;;;7.40;;
291;SDS011;23311;48.776;9.162;2023-06-22T06:47:46;6.70;;;6.30;;
291;SDS011;23311;48.776;9.162;2023-06-22T06:50:16;8.07;;;7.03;;
291;SDS011;23311;48.776;9.162;2023-06-22T06:52:45;7.03;;;6.57;;
291;SDS011;23311;48.776;9.162;2023-06-22T06:55:13;7.77;;;6.53;;
291;SDS011;23311;48.776;9.162;2023-06-22T06:57:41;6.60;;;6.17;;
291;SDS011;23311;48.776;9.162;2023-06-22T07:00:14;6.07;;;5.77;;
291;SDS011;23311;48.776;9.162;2023-06-22T07:02:44;10.23;;;7.57;;
291;SDS011;23311;48.776;9.162;2023-06-22T07:05:15;7.53;;;6.73;;
291;SDS011;23311;48.776;9.162;2023-06-22T07:07:44;7.20;;;5.50;;
291;SDS011;23311;48.776;9.162;2023-06-22T07:10:13;7.60;;;7.20;;
291;SDS011;23311;48.776;9.162;2023-06-22T07:12:41;6.97;;;6.57;;
291;SDS011;23311;48.776;9.162;2023-06-22T07:15:09;6.60;;;6.20;;
291;SDS011;23311;48.776;9.162;2023-06-22T07:17:39;6.10;;;5.50;;
291;SDS011;23311;48.776;9.162;2023-06-22T07:20:08;6.37;;;5.70;;
291;SDS011;23311;48.776;9.162;2023-06-22T07:22:40;6.63;;;6.23;;
291;SDS011;23311;48.776;9.162;2023-06-22T07:25:12;6.97;;;6.20;;
291;SDS011;23311;48.776;9.162;2023-06-22T07:27:45;7.83;;;6.63;;
291;SDS011;23311;48.776;9.162;2023-06-22T07:30:14;7.17;;;6.53;;
291;SDS011;23311;48.776;9.162;2023-06-22T07:32:42;8.83;;;6.27;;
291;SDS011;23311;48.776;9.162;2023-06-22T07:35:10;6.80;;;6.40;;
291;SDS011;23311;48.776;9.162;2023-06-22T07:37:40;7.90;;;5.90;;
291;SDS011;23311;48.776;9.162;2023-06-22T07:40:08;7.00;;;6.03;;
291;SDS011;23311;48.776;9.162;2023-06-22T07:42:37;7.67;;;5.87;;
291;SDS011;23311;48.776;9.162;2023-06-22T07:45:06;8.00;;;5.73;;
291;SDS011;23311;48.776;9.162;2023-06-22T07:47:35;7.10;;;6.10;;
291;SDS011;23311;48.776;9.162;2023-06-22T07:50:03;6.80;;;5.70;;
291;SDS011;23311;48.776;9.162;2023-06-22T07:52:32;6.83;;;5.83;;
291;SDS011;23311;48.776;9.162;2023-06-22T07:55:02;7.37;;;6.77;;
291;SDS011;23311;48.776;9.162;2023-06-22T07:57:31;10.50;;;6.70;;
291;SDS011;23311;48.776;9.162;2023-06-22T08:00:03;9.10;;;5.87;;
291;SDS011;23311;48.776;9.162;2023-06-22T08:02:39;8.87;;;5.73;;
291;SDS011;23311;48.776;9.162;2023-06-22T08:05:08;6.17;;;5.87;;
291;SDS011;23311;48.776;9.162;2023-06-22T08:07:40;7.23;;;6.83;;
291;SDS011;23311;48.776;9.162;2023-06-22T08:10:14;7.97;;;5.50;;
291;SDS011;23311;48.776;9.162;2023-06-22T08:12:43;6.27;;;5.93;;
291;SDS011;23311;48.776;9.162;2023-06-22T08:15:11;7.70;;;6.23;;
291;SDS011;23311;48.776;9.162;2023-06-22T08:17:39;5.63;;;5.33;;
291;SDS011;23311;48.776;9.162;2023-06-22T08:20:08;7.43;;;6.10;;
291;SDS011;23311;48.776;9.162;2023-06-22T08:22:38;7.33;;;5.53;;
291;SDS011;23311;48.776;9.162;2023-06-22T08:25:07;5.57;;;5.27;;
291;SDS011;23311;48.776;9.162;2023-06-22T08:27:37;7.50;;;6.30;;
291;SDS011;23311;48.776;9.162;2023-06-22T08:30:06;7.53;;;5.47;;
291;SDS011;23311;48.776;9.162;2023-06-22T08:32:34;6.03;;;5.73;;
291;SDS011;23311;48.776;9.162;2023-06-22T08:35:03;6.43;;;5.50;;
291;SDS011;23311;48.776;9.162;2023-06-22T08:37:32;5.80;;;5.50;;
291;SDS011;23311;48.776;9.162;2023-06-22T08:40:02;7.40;;;5.80;;
291;SDS011;23311;48.776;9.162;2023-06-22T08:42:32;7.67;;;5.20;;
291;SDS011;23311;48.776;9.162;2023-06-22T08:45:01;8.47;;;5.97;;
291;SDS011;23311;48.776;9.162;2023-06-22T08:47:31;6.53;;;5.50;;
291;SDS011;23311;48.776;9.162;2023-06-22T08:49:59;6.30;;;5.20;;
291;SDS011;23311;48.776;9.162;2023-06-22T08:52:29;6.60;;;5.30;;
291;SDS011;23311;48.776;9.162;2023-06-22T08:54:58;7.80;;;6.10;;
291;SDS011;23311;48.776;9.162;2023-06-22T08:57:26;6.80;;;5.03;;
291;SDS011;23311;48.776;9.162;2023-06-22T08:59:54;8.97;;;4.80;;
291;SDS011;23311;48.776;9.162;2023-06-22T09:02:27;6.27;;;4.97;;
291;SDS011;23311;48.776;9.162;2023-06-22T09:04:58;5.73;;;4.80;;
291;SDS011;23311;48.776;9.162;2023-06-22T09:07:26;8.30;;;4.93;;
291;SDS011;23311;48.776;9.162;2023-06-22T09:09:54;6.50;;;5.80;;
291;SDS011;23311;48.776;9.162;2023-06-22T09:12:23;11.60;;;5.47;;
291;SDS011;23311;48.776;9.162;2023-06-22T09:14:53;9.40;;;6.20;;
291;SDS011;23311;48.776;9.162;2023-06-22T09:17:21;7.87;;;6.37;;
291;SDS011;23311;48.776;9.162;2023-06-22T09:19:51;7.77;;;4.57;;
291;SDS011;23311;48.776;9.162;2023-06-22T09:22:19;10.43;;;5.57;;
291;SDS011;23311;48.776;9.162;2023-06-22T09:24:47;7.20;;;5.30;;
291;SDS011;23311;48.776;9.162;2023-06-22T09:27:15;8.83;;;5.10;;
291;SDS011;23311;48.776;9.162;2023-06-22T09:29:44;8.47;;;5.23;;
291;SDS011;23311;48.776;9.162;2023-06-22T09:32:12;7.40;;;5.20;;
291;SDS011;23311;48.776;9.162;2023-06-22T09:34:40;8.40;;;5.70;;
291;SDS011;23311;48.776;9.162;2023-06-22T09:37:10;8.23;;;5.03;;
291;SDS011;23311;48.776;9.162;2023-06-22T09:39:38;8.23;;;5.67;;
291;SDS011;23311;48.776;9.162;2023-06-22T09:42:06;6.93;;;5.47;;
291;SDS011;23311;48.776;9.162;2023-06-22T09:44:35;8.03;;;5.83;;
291;SDS011;23311;48.776;9.162;2023-06-22T09:47:03;8.80;;;5.97;;
291;SDS011;23311;48.776;9.162;2023-06-22T09:49:32;7.60;;;5.80;;
291;SDS011;23311;48.776;9.162;2023-06-22T09:52:15;7.10;;;5.17;;
291;SDS011;23311;48.776;9.162;2023-06-22T09:54:43;6.63;;;5.63;;
291;SDS011;23311;48.776;9.162;2023-06-22T09:57:11;6.67;;;5.77;;
291;SDS011;23311;48.776;9.162;2023-06-22T09:59:39;7.63;;;6.27;;
291;SDS011;23311;48.776;9.162;2023-06-22T10:02:08;5.93;;;5.67;;
291;SDS011;23311;48.776;9.162;2023-06-22T10:04:36;10.60;;;5.67;;
291;SDS011;23311;48.776;9.162;2023-06-22T10:07:06;6.40;;;5.07;;
291;SDS011;23311;48.776;9.162;2023-06-22T10:09:35;8.87;;;5.33;;
291;SDS011;23311;48.776;9.162;2023-06-22T10:12:03;8.83;;;6.93;;
291;SDS011;23311;48.776;9.162;2023-06-22T10:14:32;8.07;;;5.80;;
291;SDS011;23311;48.776;9.162;2023-06-22T10:17:00;10.40;;;6.17;;
291;SDS011;23311;48.776;9.162;2023-06-22T10:19:29;11.20;;;6.97;;
291;SDS011;23311;48.776;9.162;2023-06-22T10:21:57;9.20;;;5.80;;
291;SDS011;23311;48.776;9.162;2023-06-22T10:24:26;8.13;;;5.97;;
291;SDS011;23311;48.776;9.162;2023-06-22T10:26:55;9.87;;;6.20;;
291;SDS011;23311;48.776;9.162;2023-06-22T10:29:23;8.40;;;7.00;;
291;SDS011;23311;48.776;9.162;2023-06-22T10:31:51;7.23;;;6.07;;
291;SDS011;23311;48.776;9.162;2023-06-22T10:34:19;12.23;;;6.90;;
291;SDS011;23311;48.776;9.162;2023-06-22T10:36:47;8.10;;;5.57;;
291;SDS011;23311;48.776;9.162;2023-06-22T10:39:15;9.80;;;5.57;;
291;SDS011;23311;48.776;9.162;2023-06-22T10:41:44;10.20;;;5.70;;
291;SDS011;23311;48.776;9.162;2023-06-22T10:44:13;8.50;;;6.00;;
291;SDS011;23311;48.776;9.162;2023-06-22T10:46:41;8.60;;;5.90;;
291;SDS011;23311;48.776;9.162;2023-06-22T10:49:10;10.40;;;5.40;;
291;SDS011;23311;48.776;9.162;2023-06-22T10:51:38;9.07;;;5.80;;
291;SDS011;23311;48.776;9.162;2023-06-22T10:54:06;6.30;;;5.27;;
291;SDS011;23311;48.776;9.162;2023-06-22T10:56:34;10.00;;;6.50;;
291;SDS011;23311;48.776;9.162;2023-06-22T10:59:02;7.50;;;6.00;;
291;SDS011;23311;48.776;9.162;2023-06-22T11:01:31;11.73;;;5.90;;
291;SDS011;23311;48.776;9.162;2023-06-22T11:04:02;9.80;;;6.00;;
291;SDS011;23311;48.776;9.162;2023-06-22T11:06:31;10.60;;;6.00;;
291;SDS011;23311;48.776;9.162;2023-06-22T11:08:59;7.70;;;6.47;;
291;SDS011;23311;48.776;9.162;2023-06-22T11:11:37;9.37;;;6.10;;
291;SDS011;23311;48.776;9.162;2023-06-22T11:14:05;7.43;;;6.07;;
291;SDS011;23311;48.776;9.162;2023-06-22T11:16:35;7.43;;;5.90;;
291;SDS011;23311;48.776;9.162;2023-06-22T11:19:04;10.93;;;6.50;;
291;SDS011;23311;48.776;9.162;2023-06-22T11:21:33;11.53;;;6.70;;
291;SDS011;23311;48.776;9.162;2023-06-22T11:24:01;8.33;;;6.07;;
291;SDS011;23311;48.776;9.162;2023-06-22T11:26:29;8.23;;;6.40;;
291;SDS011;23311;48.776;9.162;2023-06-22T11:28:58;11.03;;;6.73;;
291;SDS011;23311;48.776;9.162;2023-06-22T11:31:26;6.70;;;6.13;;
291;SDS011;23311;48.776;9.162;2023-06-22T11:33:56;9.90;;;6.13;;
291;SDS011;23311;48.776;9.162;2023-06-22T11:36:24;10.57;;;5.80;;
291;SDS011;23311;48.776;9.162;2023-06-22T11:38:53;10.73;;;6.60;;
291;SDS011;23311;48.776;9.162;2023-06-22T11:41:21;9.80;;;6.90;;
291;SDS011;23311;48.776;9.162;2023-06-22T11:43:49;11.83;;;6.67;;
291;SDS011;23311;48.776;9.162;2023-06-22T11:46:17;10.13;;;6.53;;
291;SDS011;23311;48.776;9.162;2023-06-22T11:48:45;8.77;;;5.90;;
291;SDS011;23311;48.776;9.162;2023-06-22T11:51:15;7.53;;;6.03;;
291;SDS011;23311;48.776;9.162;2023-06-22T11:53:43;6.97;;;5.87;;
291;SDS011;23311;48.776;9.162;2023-06-22T11:56:11;6.60;;;5.37;;
291;SDS011;23311;48.776;9.162;2023-06-22T11:58:39;8.63;;;6.90;;
291;SDS011;23311;48.776;9.162;2023-06-22T12:01:07;7.60;;;6.40;;
291;SDS011;23311;48.776;9.162;2023-06-22T12:03:35;10.30;;;6.87;;
291;SDS011;23311;48.776;9.162;2023-06-22T12:06:04;13.00;;;6.77;;
291;SDS011;23311;48.776;9.162;2023-06-22T12:08:33;8.03;;;6.13;;
291;SDS011;23311;48.776;9.162;2023-06-22T12:11:01;8.37;;;7.30;;
291;SDS011;23311;48.776;9.162;2023-06-22T12:13:29;9.33;;;6.40;;
291;SDS011;23311;48.776;9.162;2023-06-22T12:15:58;8.23;;;7.20;;
291;SDS011;23311;48.776;9.162;2023-06-22T12:18:26;12.07;;;6.83;;
291;SDS011;23311;48.776;9.162;2023-06-22T12:20:54;9.40;;;6.93;;
291;SDS011;23311;48.776;9.162;2023-06-22T12:23:22;11.87;;;6.50;;
291;SDS011;23311;48.776;9.162;2023-06-22T12:25:51;8.17;;;6.83;;
291;SDS011;23311;48.776;9.162;2023-06-22T12:28:19;9.23;;;7.23;;
291;SDS011;23311;48.776;9.162;2023-06-22T12:30:49;10.20;;;6.43;;
291;SDS011;23311;48.776;9.162;2023-06-22T12:33:18;7.83;;;5.67;;
291;SDS011;23311;48.776;9.162;2023-06-22T12:35:46;10.80;;;9.50;;
291;SDS011;23311;48.776;9.162;2023-06-22T12:38:15;9.23;;;6.70;;
291;SDS011;23311;48.776;9.162;2023-06-22T12:40:43;7.90;;;6.83;;
291;SDS011;23311;48.776;9.162;2023-06-22T12:43:14;12.07;;;6.93;;
291;SDS011;23311;48.776;9.162;2023-06-22T12:45:43;9.77;;;6.80;;
291;SDS011;23311;48.776;9.162;2023-06-22T12:48:11;8.10;;;6.93;;
291;SDS011;23311;48.776;9.162;2023-06-22T12:50:40;10.27;;;6.03;;
291;SDS011;23311;48.776;9.162;2023-06-22T12:53:08;10.43;;;7.03;;
291;SDS011;23311;48.776;9.162;2023-06-22T12:55:36;9.47;;;6.83;;
291;SDS011;23311;48.776;9.162;2023-06-22T12:58:04;10.43;;;7.30;;
291;SDS011;23311;48.776;9.162;2023-06-22T13:00:34;11.20;;;6.07;;
291;SDS011;23311;48.776;9.162;2023-06-22T13:03:02;10.60;;;7.43;;
291;SDS011;23311;48.776;9.162;2023-06-22T13:05:30;8.23;;;6.47;;
291;SDS011;23311;48.776;9.162;2023-06-22T13:08:01;10.67;;;7.83;;
291;SDS011;23311;48.776;9.162;2023-06-22T13:10:29;13.80;;;6.87;;
291;SDS011;23311;48.776;9.162;2023-06-22T13:12:58;8.10;;;6.80;;
291;SDS011;23311;48.776;9.162;2023-06-22T13:15:27;8.90;;;7.07;;
291;SDS011;23311;48.776;9.162;2023-06-22T13:17:57;9.20;;;6.83;;
291;SDS011;23311;48.776;9.162;2023-06-22T13:20:26;9.23;;;6.73;;
291;SDS011;23311;48.776;9.162;2023-06-22T13:22:55;10.80;;;6.73;;
291;SDS011;23311;48.776;9.162;2023-06-22T13:25:23;11.33;;;7.23;;
291;SDS011;23311;48.776;9.162;2023-06-22T13:27:53;10.40;;;6.50;;
291;SDS011;23311;48.776;9.162;2023-06-22T13:30:22;8.17;;;6.70;;
291;SDS011;23311;48.776;9.162;2023-06-22T13:32:50;8.97;;;6.63;;
291;SDS011;23311;48.776;9.162;2023-06-22T13:35:19;7.50;;;6.80;;
291;SDS011;23311;48.776;9.162;2023-06-22T13:37:47;9.60;;;6.57;;
291;SDS011;23311;48.776;9.162;2023-06-22T13:40:16;12.80;;;6.27;;
291;SDS011;23311;48.776;9.162;2023-06-22T13:42:44;13.50;;;7.33;;
291;SDS011;23311;48.776;9.162;2023-06-22T13:45:12;8.90;;;6.33;;
291;SDS011;23311;48.776;9.162;2023-06-22T13:47:42;9.17;;;6.77;;
291;SDS011;23311;48.776;9.162;2023-06-22T13:50:11;9.20;;;6.33;;
291;SDS011;23311;48.776;9.162;2023-06-22T13:52:41;7.20;;;6.33;;
291;SDS011;23311;48.776;9.162;2023-06-22T13:55:09;9.40;;;6.00;;
291;SDS011;23311;48.776;9.162;2023-06-22T13:57:37;10.07;;;6.43;;
291;SDS011;23311;48.776;9.162;2023-06-22T14:00:06;8.53;;;6.30;;
291;SDS011;23311;48.776;9.162;2023-06-22T14:02:35;20.40;;;7.40;;
291;SDS011;23311;48.776;9.162;2023-06-22T14:05:03;10.97;;;7.13;;
291;SDS011;23311;48.776;9.162;2023-06-22T14:07:32;9.00;;;6.40;;
291;SDS011;23311;48.776;9.162;2023-06-22T14:10:01;10.43;;;6.47;;
291;SDS011;23311;48.776;9.162;2023-06-22T14:12:30;13.17;;;7.37;;
291;SDS011;23311;48.776;9.162;2023-06-22T14:14:58;8.43;;;6.50;;
291;SDS011;23311;48.776;9.162;2023-06-22T14:17:26;11.33;;;6.00;;
291;SDS011;23311;48.776;9.162;2023-06-22T14:19:54;12.03;;;6.80;;
291;SDS011;23311;48.776;9.162;2023-06-22T14:22:22;7.93;;;6.07;;
291;SDS011;23311;48.776;9.162;2023-06-22T14:24:50;8.30;;;6.10;;
291;SDS011;23311;48.776;9.162;2023-06-22T14:27:20;10.57;;;6.10;;
291;SDS011;23311;48.776;9.162;2023-06-22T14:29:48;11.43;;;5.73;;
291;SDS011;23311;48.776;9.162;2023-06-22T14:32:16;8.90;;;5.50;;
291;SDS011;23311;48.776;9.162;2023-06-22T14:34:44;12.30;;;6.03;;
291;SDS011;23311;48.776;9.162;2023-06-22T14:37:12;7.60;;;4.83;;
291;SDS011;23311;48.776;9.162;2023-06-22T14:39:40;7.67;;;5.60;;
291;SDS011;23311;48.776;9.162;2023-06-22T14:42:09;8.57;;;5.43;;
291;SDS011;23311;48.776;9.162;2023-06-22T14:44:38;11.53;;;5.20;;
291;SDS011;23311;48.776;9.162;2023-06-22T14:47:07;7.70;;;5.07;;
291;SDS011;23311;48.776;9.162;2023-06-22T14:49:35;11.50;;;4.97;;
291;SDS011;23311;48.776;9.162;2023-06-22T14:52:03;6.33;;;4.90;;
291;SDS011;23311;48.776;9.162;2023-06-22T14:54:33;7.50;;;4.90;;
291;SDS011;23311;48.776;9.162;2023-06-22T14:57:01;7.23;;;4.90;;
291;SDS011;23311;48.776;9.162;2023-06-22T14:59:29;10.77;;;5.17;;
291;SDS011;23311;48.776;9.162;2023-06-22T15:01:59;6.50;;;4.10;;
291;SDS011;23311;48.776;9.162;2023-06-22T15:04:27;6.33;;;3.53;;
291;SDS011;23311;48.776;9.162;2023-06-22T15:06:58;10.60;;;3.53;;
291;SDS011;23311;48.776;9.162;2023-06-22T15:09:26;5.57;;;3.10;;
291;SDS011;23311;48.776;9.162;2023-06-22T15:11:54;6.07;;;3.60;;
291;SDS011;23311;48.776;9.162;2023-06-22T15:14:22;6.97;;;3.63;;
291;SDS011;23311;48.776;9.162;2023-06-22T15:16:50;10.27;;;4.27;;
291;SDS011;23311;48.776;9.162;2023-06-22T15:19:20;7.33;;;3.80;;
291;SDS011;23311;48.776;9.162;2023-06-22T15:21:48;8.07;;;3.33;;